Time;durP1;ratioP1;P1;durP2;ratioP2;P2;SDS_P1;SDS_P2;PMS_P1;PMS_P2;Temp;Humidity;BMP_temperature;BMP_pressure;BME280_temperature;BME280_humidity;BME280_pressure;Samples;Min_cycle;Max_cycle;Signal;HPM_P1;HPM_P2
2022/02/16 00:01:12;;;;;;;;;;;6.80;99.90;;;;;;5038138;28;20033;-75
2022/02/16 00:03:37;;;;;;;1.80;0.80;;;6.80;99.90;;;;;;5039670;28;19912;-75
2022/02/16 00:06:03;;;;;;;3.13;1.27;;;6.80;99.90;;;;;;5038768;28;20060;-75
2022/02/16 00:08:29;;;;;;;1.42;0.85;;;6.80;99.90;;;;;;5038044;28;20124;-75
2022/02/16 00:10:54;;;;;;;2.25;0.82;;;6.80;99.90;;;;;;5039526;28;20033;-75
2022/02/16 00:13:20;;;;;;;2.13;0.60;;;6.80;99.90;;;;;;5038830;28;20029;-75
2022/02/16 00:15:46;;;;;;;3.88;1.83;;;6.80;99.90;;;;;;5039257;28;20397;-75
2022/02/16 00:18:11;;;;;;;5.43;0.90;;;6.70;99.90;;;;;;5039737;28;20038;-74
2022/02/16 00:20:37;;;;;;;2.13;1.17;;;6.80;99.90;;;;;;5039198;28;20030;-75
2022/02/16 00:23:03;;;;;;;2.97;0.60;;;6.80;99.90;;;;;;5038577;28;20033;-75
2022/02/16 00:25:29;;;;;;;1.35;0.88;;;6.70;99.90;;;;;;5038193;28;20029;-75
2022/02/16 00:27:55;;;;;;;1.90;1.00;;;6.70;99.90;;;;;;5038507;28;20116;-75
2022/02/16 00:30:20;;;;;;;;;;;6.70;99.90;;;;;;5037592;28;20044;-75
2022/02/16 00:32:46;;;;;;;5.60;0.80;;;6.70;99.90;;;;;;5040049;28;19909;-75
2022/02/16 00:35:12;;;;;;;5.15;1.35;;;6.70;99.90;;;;;;5037809;28;20370;-76
2022/02/16 00:37:37;;;;;;;2.08;1.00;;;6.70;99.90;;;;;;5039757;28;20535;-75
2022/02/16 00:40:03;;;;;;;;;;;6.70;99.90;;;;;;5037952;28;20082;-75
2022/02/16 00:42:29;;;;;;;4.43;1.00;;;6.70;99.90;;;;;;5038485;28;19917;-75
2022/02/16 00:44:55;;;;;;;4.18;1.20;;;6.70;99.90;;;;;;5039217;28;20069;-75
2022/02/16 00:47:20;;;;;;;2.05;1.05;;;6.80;99.90;;;;;;5038363;28;20029;-75
2022/02/16 00:49:45;;;;;;;;;;;6.70;99.90;;;;;;5039405;28;20017;-75
2022/02/16 00:52:11;;;;;;;3.25;0.98;;;6.80;99.90;;;;;;5037273;28;19992;-75
2022/02/16 00:54:38;;;;;;;1.83;1.23;;;6.70;99.90;;;;;;5039509;28;20021;-75
2022/02/16 00:57:04;;;;;;;2.83;1.05;;;6.70;99.90;;;;;;5036222;28;20078;-76
2022/02/16 00:59:30;;;;;;;1.25;0.88;;;6.80;99.90;;;;;;5037428;28;20037;-76
2022/02/16 01:01:56;;;;;;;1.17;0.65;;;6.80;99.90;;;;;;5038257;28;20029;-75
2022/02/16 01:04:24;;;;;;;4.40;0.85;;;6.80;99.90;;;;;;5036618;28;20039;-75
2022/02/16 01:06:51;;;;;;;3.83;0.70;;;6.80;99.90;;;;;;5038456;28;20494;-75
2022/02/16 01:09:17;;;;;;;2.97;1.30;;;6.70;99.90;;;;;;5038128;28;20489;-75
2022/02/16 01:11:42;;;;;;;1.83;1.00;;;6.80;99.90;;;;;;5037554;28;20049;-75
2022/02/16 01:14:07;;;;;;;;;;;6.80;99.90;;;;;;5037708;28;20061;-75
2022/02/16 01:16:36;;;;;;;3.63;0.75;;;6.80;99.90;;;;;;5039140;28;19912;-75
2022/02/16 01:19:06;;;;;;;1.08;0.77;;;6.80;99.90;;;;;;5037298;28;20175;-75
2022/02/16 01:21:31;;;;;;;2.92;0.88;;;6.80;99.90;;;;;;5038148;28;20532;-75
2022/02/16 01:23:57;;;;;;;2.35;1.30;;;6.80;99.90;;;;;;5035330;28;20259;-75
2022/02/16 01:26:23;;;;;;;3.35;1.65;;;6.80;99.90;;;;;;5035373;28;20040;-76
2022/02/16 01:28:49;;;;;;;;;;;6.80;99.90;;;;;;5035240;28;20026;-76
2022/02/16 01:31:14;;;;;;;4.50;1.33;;;6.80;99.90;;;;;;5032923;28;19913;-75
2022/02/16 01:33:40;;;;;;;6.82;1.42;;;6.80;99.90;;;;;;5038240;28;20025;-75
2022/02/16 01:36:06;;;;;;;6.40;1.50;;;6.70;99.90;;;;;;5038002;28;20095;-75
2022/02/16 01:38:32;;;;;;;6.63;1.63;;;6.80;99.90;;;;;;5037959;28;20047;-75
2022/02/16 01:40:57;;;;;;;1.92;1.00;;;6.80;99.90;;;;;;5037858;28;20964;-75
2022/02/16 01:43:23;;;;;;;2.67;1.52;;;6.70;99.90;;;;;;5038039;28;20105;-75
2022/02/16 01:45:49;;;;;;;2.65;1.70;;;6.70;99.90;;;;;;5037656;28;20021;-75
2022/02/16 01:48:14;;;;;;;1.65;1.20;;;6.70;99.90;;;;;;5036061;28;20444;-75
2022/02/16 01:50:40;;;;;;;3.13;1.40;;;6.70;99.90;;;;;;5037887;28;20469;-75
2022/02/16 01:53:05;;;;;;;1.55;1.40;;;6.80;99.90;;;;;;5039208;28;20025;-75
2022/02/16 01:55:32;;;;;;;2.33;1.52;;;6.80;99.90;;;;;;5037846;28;20099;-75
2022/02/16 01:57:59;;;;;;;3.40;1.48;;;6.80;99.90;;;;;;5038650;28;20877;-75
2022/02/16 02:00:25;;;;;;;2.58;1.35;;;6.80;99.90;;;;;;5037587;28;20135;-75
2022/02/16 02:02:51;;;;;;;7.65;1.98;;;6.80;99.90;;;;;;5034689;28;20111;-75
2022/02/16 02:05:16;;;;;;;3.15;1.42;;;6.80;99.90;;;;;;5036313;28;20091;-75
2022/02/16 02:07:42;;;;;;;4.93;1.42;;;6.80;99.90;;;;;;5038604;28;20461;-75
2022/02/16 02:10:09;;;;;;;3.25;1.48;;;6.80;99.90;;;;;;5040584;28;20723;-75
2022/02/16 02:12:47;;;;;;;4.13;1.65;;;6.80;99.90;;;;;;5044611;28;20037;-75
2022/02/16 02:15:13;;;;;;;3.28;2.65;;;6.80;99.90;;;;;;5043407;28;20017;-75
2022/02/16 02:17:39;;;;;;;8.60;4.20;;;6.80;99.90;;;;;;5041096;28;20764;-75
2022/02/16 02:20:17;;;;;;;11.48;7.80;;;6.80;99.90;;;;;;5044204;28;20037;-75
2022/02/16 02:22:42;;;;;;;6.10;3.00;;;6.80;99.90;;;;;;5043937;28;20642;-76
2022/02/16 02:25:08;;;;;;;6.93;4.55;;;6.80;99.90;;;;;;5044474;28;20039;-75
2022/02/16 02:27:33;;;;;;;4.57;1.60;;;6.80;99.90;;;;;;5043275;28;20041;-76
2022/02/16 02:29:59;;;;;;;3.67;1.80;;;6.80;99.90;;;;;;5045064;28;20025;-75
2022/02/16 02:32:24;;;;;;;1.67;1.05;;;6.80;99.90;;;;;;5044894;28;20428;-75
2022/02/16 02:34:52;;;;;;;3.78;1.08;;;6.90;99.90;;;;;;5043522;28;20024;-76
2022/02/16 02:37:18;;;;;;;2.88;1.20;;;6.90;99.90;;;;;;5043185;28;20025;-75
2022/02/16 02:39:43;;;;;;;2.83;1.60;;;6.90;99.90;;;;;;5044521;28;20028;-75
2022/02/16 02:42:09;;;;;;;3.88;1.48;;;6.90;99.90;;;;;;5043588;28;20025;-75
2022/02/16 02:44:35;;;;;;;4.00;1.52;;;6.90;99.90;;;;;;5043002;28;20044;-75
2022/02/16 02:47:01;;;;;;;7.35;1.92;;;6.90;99.90;;;;;;5044136;28;20096;-75
2022/02/16 02:49:27;;;;;;;2.60;1.42;;;6.90;99.90;;;;;;5044457;28;20572;-75
2022/02/16 02:51:52;;;;;;;4.00;1.70;;;6.90;99.90;;;;;;5042381;28;20035;-75
2022/02/16 02:54:18;;;;;;;4.35;1.10;;;7.00;99.90;;;;;;5043677;28;20108;-75
2022/02/16 02:56:43;;;;;;;3.72;1.40;;;7.00;99.90;;;;;;5044558;28;20095;-75
2022/02/16 02:59:09;;;;;;;;;;;7.00;99.90;;;;;;5044560;28;20036;-76
2022/02/16 03:01:34;;;;;;;3.55;1.45;;;7.00;99.90;;;;;;5043598;28;19905;-75
2022/02/16 03:04:00;;;;;;;2.35;1.10;;;7.00;99.90;;;;;;5043135;28;20071;-75
2022/02/16 03:06:25;;;;;;;;;;;7.00;99.90;;;;;;5043547;28;20057;-76
2022/02/16 03:08:51;;;;;;;2.28;1.45;;;7.00;99.90;;;;;;5041358;28;20059;-76
2022/02/16 03:11:19;;;;;;;5.63;1.90;;;7.00;99.90;;;;;;5043061;28;20075;-76
2022/02/16 03:13:46;;;;;;;3.45;1.77;;;7.00;99.90;;;;;;5043780;28;20481;-75
2022/02/16 03:16:12;;;;;;;2.97;1.70;;;7.00;99.90;;;;;;5042847;28;20588;-75
2022/02/16 03:18:37;;;;;;;4.53;1.60;;;7.10;99.90;;;;;;5043733;28;20045;-76
2022/02/16 03:21:03;;;;;;;2.13;1.20;;;7.10;99.90;;;;;;5041761;28;20032;-75
2022/02/16 03:23:28;;;;;;;;;;;7.10;99.90;;;;;;5040275;28;20112;-75
2022/02/16 03:25:54;;;;;;;1.58;1.08;;;7.10;99.90;;;;;;5040617;28;19908;-76
2022/02/16 03:28:19;;;;;;;1.23;0.98;;;7.10;99.90;;;;;;5039483;28;20037;-76
2022/02/16 03:30:45;;;;;;;3.90;1.63;;;7.10;99.90;;;;;;5040894;28;20460;-76
2022/02/16 03:33:10;;;;;;;2.95;0.90;;;7.10;99.90;;;;;;5040563;28;20032;-76
2022/02/16 03:35:36;;;;;;;;;;;7.20;99.90;;;;;;5041363;28;20038;-76
2022/02/16 03:38:03;;;;;;;2.72;1.58;;;7.20;99.90;;;;;;5040265;28;19912;-75
2022/02/16 03:40:30;;;;;;;2.05;1.33;;;7.20;99.90;;;;;;5039244;28;20508;-75
2022/02/16 03:42:57;;;;;;;3.35;0.98;;;7.10;99.90;;;;;;5040036;28;20038;-75
2022/02/16 03:45:23;;;;;;;3.00;1.20;;;7.10;99.90;;;;;;5041414;28;20066;-75
2022/02/16 03:47:49;;;;;;;3.00;1.55;;;7.10;99.90;;;;;;5038455;28;20029;-75
2022/02/16 03:50:15;;;;;;;2.90;1.58;;;7.10;99.90;;;;;;5040932;28;20033;-75
2022/02/16 03:52:40;;;;;;;;;;;7.20;99.90;;;;;;5040034;28;20428;-75
2022/02/16 03:55:06;;;;;;;7.25;2.50;;;7.20;99.90;;;;;;5039893;28;20300;-76
2022/02/16 03:57:32;;;;;;;;;;;7.20;99.90;;;;;;5038008;28;20501;-75
2022/02/16 03:59:57;;;;;;;8.82;2.33;;;7.20;99.90;;;;;;5039469;28;19920;-76
2022/02/16 04:02:23;;;;;;;6.65;3.13;;;7.20;99.90;;;;;;5040099;28;20033;-75
2022/02/16 04:04:48;;;;;;;5.10;3.47;;;7.20;99.90;;;;;;5040067;28;20432;-75
2022/02/16 04:07:14;;;;;;;;;;;7.20;99.90;;;;;;5039714;28;20021;-75
2022/02/16 04:09:41;;;;;;;6.45;2.63;;;7.10;99.90;;;;;;5040274;28;19916;-75
2022/02/16 04:12:07;;;;;;;12.10;2.95;;;7.20;99.90;;;;;;5039921;28;20039;-76
2022/02/16 04:14:33;;;;;;;4.97;3.00;;;7.20;99.90;;;;;;5038365;28;20036;-75
2022/02/16 04:16:58;;;;;;;6.75;2.30;;;7.20;99.90;;;;;;5040146;28;20037;-75
2022/02/16 04:19:24;;;;;;;;;;;7.20;99.90;;;;;;5040204;28;20116;-76
2022/02/16 04:21:49;;;;;;;4.00;2.53;;;7.20;99.90;;;;;;5037507;28;19917;-75
2022/02/16 04:24:15;;;;;;;;;;;7.20;99.90;;;;;;5039495;28;20032;-76
2022/02/16 04:26:40;;;;;;;7.50;2.20;;;7.20;99.90;;;;;;5039963;28;19920;-75
2022/02/16 04:29:06;;;;;;;7.00;3.20;;;7.30;99.90;;;;;;5039013;28;20060;-75
2022/02/16 04:31:32;;;;;;;2.65;1.80;;;7.30;99.90;;;;;;5037831;28;20029;-75
2022/02/16 04:33:57;;;;;;;;;;;7.30;99.90;;;;;;5038204;28;20021;-75
2022/02/16 04:36:26;;;;;;;5.55;1.58;;;7.30;99.90;;;;;;5039949;28;19913;-75
2022/02/16 04:38:55;;;;;;;8.55;1.98;;;7.30;99.90;;;;;;5039300;28;20037;-75
2022/02/16 04:41:21;;;;;;;3.20;1.00;;;7.30;99.90;;;;;;5038856;28;20155;-75
2022/02/16 04:43:47;;;;;;;5.35;1.80;;;7.30;99.90;;;;;;5039611;28;20602;-75
2022/02/16 04:46:12;;;;;;;4.00;1.85;;;7.30;99.90;;;;;;5037046;28;20116;-76
2022/02/16 04:48:38;;;;;;;;;;;7.30;99.90;;;;;;5037998;28;20481;-76
2022/02/16 04:51:04;;;;;;;4.72;1.83;;;7.30;99.90;;;;;;5037016;28;20361;-76
2022/02/16 04:53:32;;;;;;;4.45;2.85;;;7.30;99.90;;;;;;5039401;28;20029;-76
2022/02/16 04:55:59;;;;;;;6.72;2.05;;;7.20;99.90;;;;;;5038902;28;20543;-76
2022/02/16 04:58:24;;;;;;;;;;;7.20;99.90;;;;;;5039213;28;20657;-76
2022/02/16 05:00:49;;;;;;;4.28;2.38;;;7.20;99.90;;;;;;5037253;28;19919;-75
2022/02/16 05:03:15;;;;;;;;;;;7.20;99.90;;;;;;5039056;28;20477;-76
2022/02/16 05:05:40;;;;;;;5.85;2.67;;;7.20;99.90;;;;;;5035994;28;19909;-76
2022/02/16 05:08:06;;;;;;;2.72;1.73;;;7.20;99.90;;;;;;5038269;28;20029;-76
2022/02/16 05:10:34;;;;;;;2.92;1.60;;;7.20;99.90;;;;;;5033666;28;20452;-77
2022/02/16 05:13:00;;;;;;;6.25;2.78;;;7.20;99.90;;;;;;5037914;28;20030;-76
2022/02/16 05:15:26;;;;;;;11.18;6.13;;;7.20;99.90;;;;;;5039171;28;20021;-76
2022/02/16 05:17:51;;;;;;;13.10;6.72;;;7.20;99.90;;;;;;5037869;28;20489;-76
2022/02/16 05:20:17;;;;;;;8.57;4.68;;;7.20;99.90;;;;;;5037154;28;20459;-76
2022/02/16 05:22:42;;;;;;;8.57;3.85;;;7.20;99.90;;;;;;5037061;28;20036;-76
2022/02/16 05:25:08;;;;;;;4.47;2.35;;;7.20;99.90;;;;;;5038038;28;20029;-77
2022/02/16 05:27:34;;;;;;;;;;;7.20;99.90;;;;;;5033138;28;20028;-77
2022/02/16 05:29:59;;;;;;;7.00;1.65;;;7.20;99.90;;;;;;5037551;28;19916;-76
2022/02/16 05:32:25;;;;;;;3.80;1.35;;;7.20;99.90;;;;;;5032221;28;20030;-77
2022/02/16 05:34:50;;;;;;;;;;;7.20;99.90;;;;;;5032814;28;20632;-77
2022/02/16 05:37:16;;;;;;;1.90;1.10;;;7.20;99.90;;;;;;5037904;28;19904;-77
2022/02/16 05:39:41;;;;;;;6.63;1.20;;;7.20;99.90;;;;;;5038903;28;20124;-77
2022/02/16 05:42:07;;;;;;;;;;;7.20;99.90;;;;;;5036159;28;20017;-77
2022/02/16 05:44:32;;;;;;;5.25;1.95;;;7.20;99.90;;;;;;5038320;28;19919;-78
2022/02/16 05:46:58;;;;;;;;;;;7.20;99.90;;;;;;5036243;28;20024;-81
2022/02/16 05:49:23;;;;;;;3.85;0.93;;;7.20;99.90;;;;;;5038417;28;19923;-75
2022/02/16 05:51:49;;;;;;;2.45;0.90;;;7.10;99.90;;;;;;5035727;28;20108;-75
2022/02/16 05:54:14;;;;;;;4.75;1.05;;;7.20;99.90;;;;;;5038448;28;20021;-74
2022/02/16 05:56:40;;;;;;;1.35;0.90;;;7.10;99.90;;;;;;5037565;28;20049;-73
2022/02/16 05:59:06;;;;;;;;;;;7.20;99.90;;;;;;5038092;28;20058;-74
2022/02/16 06:01:32;;;;;;;1.48;0.70;;;7.20;99.90;;;;;;5037368;28;19919;-74
2022/02/16 06:03:58;;;;;;;2.28;0.82;;;7.10;99.90;;;;;;5038635;28;20029;-75
2022/02/16 06:06:23;;;;;;;3.53;0.80;;;7.20;99.90;;;;;;5036850;28;20599;-75
2022/02/16 06:08:49;;;;;;;2.55;0.68;;;7.20;99.90;;;;;;5036075;28;20025;-75
2022/02/16 06:11:14;;;;;;;3.00;0.70;;;7.20;99.90;;;;;;5034942;28;20030;-75
2022/02/16 06:13:40;;;;;;;;;;;7.20;99.90;;;;;;5036545;28;20033;-76
2022/02/16 06:16:06;;;;;;;2.50;0.90;;;7.20;99.90;;;;;;5036916;28;19909;-77
2022/02/16 06:18:31;;;;;;;2.25;0.85;;;7.20;99.90;;;;;;5037963;28;20037;-78
2022/02/16 06:20:57;;;;;;;;;;;7.20;99.90;;;;;;5038778;28;20040;-78
2022/02/16 06:23:23;;;;;;;2.53;0.60;;;7.20;99.90;;;;;;5037593;28;20353;-78
2022/02/16 06:25:48;;;;;;;4.97;1.10;;;7.30;99.90;;;;;;5033329;28;20030;-78
2022/02/16 06:28:14;;;;;;;2.17;1.35;;;7.30;99.90;;;;;;5034226;28;20033;-75
2022/02/16 06:30:39;;;;;;;3.20;1.23;;;7.40;99.90;;;;;;5037395;28;20108;-75
2022/02/16 06:33:05;;;;;;;2.97;1.92;;;7.40;99.90;;;;;;5036678;28;20080;-75
2022/02/16 06:35:31;;;;;;;3.38;0.82;;;7.40;99.90;;;;;;5035507;28;20018;-75
2022/02/16 06:37:56;;;;;;;;;;;7.40;99.90;;;;;;5037047;28;20059;-75
2022/02/16 06:40:22;;;;;;;3.00;1.33;;;7.40;99.90;;;;;;5036488;28;19913;-75
2022/02/16 06:42:48;;;;;;;2.10;0.90;;;7.40;99.90;;;;;;5037010;28;20037;-76
2022/02/16 06:45:13;;;;;;;2.10;0.70;;;7.40;99.90;;;;;;5035783;28;20120;-76
2022/02/16 06:47:39;;;;;;;;;;;7.40;99.90;;;;;;5038718;28;20049;-75
2022/02/16 06:50:05;;;;;;;1.67;0.82;;;7.40;99.90;;;;;;5036709;28;20348;-75
2022/02/16 06:52:30;;;;;;;2.58;0.82;;;7.50;99.90;;;;;;5038311;28;20077;-75
2022/02/16 06:54:56;;;;;;;1.25;0.65;;;7.50;99.90;;;;;;5038346;28;20049;-75
2022/02/16 06:57:22;;;;;;;1.52;0.68;;;7.50;99.90;;;;;;5040583;28;20033;-76
2022/02/16 06:59:48;;;;;;;0.68;0.68;;;7.50;99.90;;;;;;5040124;28;20033;-76
2022/02/16 07:02:14;;;;;;;1.25;0.75;;;7.50;99.90;;;;;;5041596;28;20021;-75
2022/02/16 07:04:39;;;;;;;0.77;0.73;;;7.60;99.90;;;;;;5042048;28;20028;-76
2022/02/16 07:07:05;;;;;;;;;;;7.60;99.90;;;;;;5039246;28;20029;-75
2022/02/16 07:09:31;;;;;;;0.82;0.70;;;7.60;99.90;;;;;;5041177;28;19952;-78
2022/02/16 07:11:56;;;;;;;1.00;0.57;;;7.60;99.90;;;;;;5037620;28;20166;-75
2022/02/16 07:14:23;;;;;;;1.75;0.90;;;7.60;99.90;;;;;;5038043;28;20142;-76
2022/02/16 07:16:49;;;;;;;2.17;1.40;;;7.70;99.90;;;;;;5036390;28;20030;-74
2022/02/16 07:19:16;;;;;;;5.03;2.30;;;7.70;99.90;;;;;;5039515;28;20026;-72
2022/02/16 07:21:42;;;;;;;7.18;1.60;;;7.70;99.90;;;;;;5039322;28;20084;-73
2022/02/16 07:24:08;;;;;;;;;;;7.80;99.90;;;;;;5037159;28;20033;-73
2022/02/16 07:26:33;;;;;;;1.88;0.80;;;7.80;99.90;;;;;;5039378;28;19978;-73
2022/02/16 07:28:59;;;;;;;1.80;0.80;;;7.80;99.90;;;;;;5038568;28;20112;-74
2022/02/16 07:31:25;;;;;;;2.05;0.73;;;7.80;99.90;;;;;;5037126;28;20401;-76
2022/02/16 07:33:50;;;;;;;2.65;0.50;;;7.80;99.90;;;;;;5039249;28;20405;-74
2022/02/16 07:36:16;;;;;;;2.60;0.80;;;7.90;99.90;;;;;;5039021;28;20523;-73
2022/02/16 07:38:41;;;;;;;1.10;0.52;;;7.90;99.90;;;;;;5039601;28;20489;-73
2022/02/16 07:41:07;;;;;;;0.88;0.43;;;7.90;99.90;;;;;;5038073;28;21286;-73
2022/02/16 07:43:33;;;;;;;;;;;8.00;99.90;;;;;;5039085;28;20035;-76
2022/02/16 07:45:58;;;;;;;0.82;0.45;;;8.00;99.90;;;;;;5039368;28;19959;-75
2022/02/16 07:48:23;;;;;;;0.75;0.40;;;8.00;99.90;;;;;;5040065;28;20073;-75
2022/02/16 07:50:49;;;;;;;;;;;8.00;99.90;;;;;;5040259;28;20035;-74
2022/02/16 07:53:16;;;;;;;4.00;2.75;;;8.10;99.90;;;;;;5039835;28;20055;-75
2022/02/16 07:55:42;;;;;;;0.50;0.50;;;8.10;99.90;;;;;;5039801;28;20909;-75
2022/02/16 07:58:08;;;;;;;2.08;0.70;;;8.10;99.90;;;;;;5037346;28;20120;-75
2022/02/16 08:00:37;;;;;;;0.88;0.57;;;8.20;99.90;;;;;;5038249;28;20033;-73
2022/02/16 08:03:04;;;;;;;1.98;0.40;;;8.30;99.90;;;;;;5038930;28;20036;-75
2022/02/16 08:05:29;;;;;;;1.10;0.65;;;8.30;99.90;;;;;;5039706;28;20025;-76
2022/02/16 08:07:55;;;;;;;1.85;1.25;;;8.30;99.90;;;;;;5038409;28;20283;-76
2022/02/16 08:10:21;;;;;;;2.42;0.68;;;8.40;99.90;;;;;;5037820;28;20030;-76
2022/02/16 08:12:48;;;;;;;1.67;0.60;;;8.40;99.90;;;;;;5038909;28;20075;-75
2022/02/16 08:15:14;;;;;;;1.35;0.65;;;8.40;99.90;;;;;;5035617;28;20021;-76
2022/02/16 08:17:41;;;;;;;;;;;8.40;99.90;;;;;;5040123;28;20034;-75
2022/02/16 08:20:08;;;;;;;1.35;0.38;;;8.30;99.90;;;;;;5039307;28;20253;-77
2022/02/16 08:22:33;;;;;;;0.88;0.30;;;8.30;99.90;;;;;;5038946;28;20053;-79
2022/02/16 08:24:59;;;;;;;;;;;8.30;99.90;;;;;;5038297;28;20025;-79
2022/02/16 08:27:24;;;;;;;1.35;0.68;;;8.30;99.90;;;;;;5039175;28;20355;-77
2022/02/16 08:29:50;;;;;;;0.65;0.45;;;8.30;99.90;;;;;;5036983;28;20103;-76
2022/02/16 08:32:15;;;;;;;;;;;8.30;99.90;;;;;;5037133;28;20042;-78
2022/02/16 08:34:41;;;;;;;0.47;0.35;;;8.20;99.90;;;;;;5038964;28;19966;-75
2022/02/16 08:37:06;;;;;;;2.45;0.60;;;8.20;99.90;;;;;;5038559;28;20017;-75
2022/02/16 08:39:31;;;;;;;;;;;8.20;99.90;;;;;;5039211;28;20037;-74
2022/02/16 08:41:57;;;;;;;1.23;0.52;;;8.20;99.90;;;;;;5038295;28;19909;-74
2022/02/16 08:44:23;;;;;;;;;;;8.20;99.90;;;;;;5039522;28;20529;-75
2022/02/16 08:46:48;;;;;;;1.25;0.47;;;8.20;99.90;;;;;;5039059;28;20415;-76
2022/02/16 08:49:15;;;;;;;6.05;3.15;;;8.20;99.90;;;;;;5036379;28;20029;-75
2022/02/16 08:51:40;;;;;;;1.05;0.73;;;8.20;99.90;;;;;;5038740;28;20033;-79
2022/02/16 08:54:06;;;;;;;;;;;8.20;99.90;;;;;;5038813;28;20071;-80
2022/02/16 08:56:31;;;;;;;1.95;0.70;;;8.30;99.90;;;;;;5038180;28;19974;-79
2022/02/16 08:59:00;;;;;;;4.72;1.13;;;8.30;99.90;;;;;;5038353;28;20074;-79
2022/02/16 09:01:31;;;;;;;5.75;0.90;;;8.30;99.90;;;;;;5038137;28;20041;-79
2022/02/16 09:04:00;;;;;;;1.85;0.75;;;8.40;99.90;;;;;;5037901;28;20021;-78
2022/02/16 09:06:25;;;;;;;3.30;1.05;;;8.40;99.90;;;;;;5035369;28;20474;-79
2022/02/16 09:08:51;;;;;;;;;;;8.40;99.90;;;;;;5038130;28;20033;-77
2022/02/16 09:11:17;;;;;;;3.90;0.60;;;8.50;99.90;;;;;;5038007;28;19912;-77
2022/02/16 09:13:43;;;;;;;;;;;8.50;99.90;;;;;;5038267;28;20030;-77
2022/02/16 09:16:08;;;;;;;1.33;0.75;;;8.60;99.90;;;;;;5038081;28;19909;-77
2022/02/16 09:18:33;;;;;;;2.00;1.85;;;8.70;99.90;;;;;;5038486;28;20120;-75
2022/02/16 09:21:05;;;;;;;1.35;0.50;;;8.70;99.90;;;;;;5034801;28;20087;-80
2022/02/16 09:23:31;;;;;;;0.90;0.50;;;8.70;99.90;;;;;;5036190;28;20036;-80
2022/02/16 09:25:56;;;;;;;;;;;8.80;99.90;;;;;;5038363;28;20025;-77
2022/02/16 09:28:22;;;;;;;4.60;0.57;;;8.80;99.90;;;;;;5038214;28;20035;-79
2022/02/16 09:30:47;;;;;;;;;;;8.90;99.90;;;;;;5034113;28;20022;-77
2022/02/16 09:33:12;;;;;;;1.08;0.30;;;8.90;99.90;;;;;;5036580;28;19912;-78
2022/02/16 09:35:38;;;;;;;0.77;0.52;;;9.00;99.90;;;;;;5037736;28;20026;-78
2022/02/16 09:38:03;;;;;;;;;;;9.00;99.90;;;;;;5038525;28;20503;-77
2022/02/16 09:40:30;;;;;;;3.15;1.23;;;9.10;99.90;;;;;;5037785;28;19955;-78
2022/02/16 09:43:00;;;;;;;1.67;0.60;;;9.20;99.90;;;;;;5037281;28;20030;-79
2022/02/16 09:45:30;;;;;;;3.25;0.50;;;9.30;99.90;;;;;;5036884;28;20060;-79
2022/02/16 09:47:55;;;;;;;4.20;0.70;;;9.30;99.90;;;;;;5035418;28;20532;-76
2022/02/16 09:50:21;;;;;;;;;;;9.30;99.90;;;;;;5036751;28;20162;-79
2022/02/16 09:52:47;;;;;;;3.25;1.05;;;9.20;99.90;;;;;;5036346;28;19955;-77
2022/02/16 09:55:12;;;;;;;;;;;9.10;99.90;;;;;;5033930;28;20056;-78
2022/02/16 09:57:38;;;;;;;4.13;1.40;;;9.10;99.90;;;;;;5037041;28;19974;-77
2022/02/16 10:00:06;;;;;;;;;;;9.00;99.90;;;;;;5037436;28;20104;-76
2022/02/16 10:02:39;;;;;;;2.85;0.85;;;9.00;99.90;;;;;;5036985;28;19913;-77
2022/02/16 10:05:06;;;;;;;3.13;1.10;;;9.00;99.90;;;;;;5035038;28;20078;-79
2022/02/16 10:07:34;;;;;;;3.92;1.88;;;9.00;99.90;;;;;;5037741;28;20033;-80
2022/02/16 10:10:20;;;;;;;5.38;1.33;;;9.10;99.90;;;;;;5036455;28;20083;-74
2022/02/16 10:12:50;;;;;;;4.63;1.50;;;9.10;99.90;;;;;;5036375;28;20072;-74
2022/02/16 10:15:18;;;;;;;5.00;1.70;;;9.10;99.90;;;;;;5030861;28;20029;-80
2022/02/16 10:17:44;;;;;;;6.15;1.50;;;9.10;99.90;;;;;;5037773;28;20029;-78
2022/02/16 10:20:11;;;;;;;;;;;9.10;99.90;;;;;;5035737;28;20132;-78
2022/02/16 10:22:49;;;;;;;6.30;1.52;;;9.20;99.90;;;;;;5034942;28;19912;-77
2022/02/16 10:25:16;;;;;;;2.17;1.00;;;9.30;99.90;;;;;;5036587;28;20477;-73
2022/02/16 10:28:08;;;;;;;1.52;0.70;;;9.30;99.90;;;;;;5035732;28;20029;-74
2022/02/16 10:30:39;;;;;;;4.28;1.42;;;9.30;99.90;;;;;;5036866;28;20037;-73
2022/02/16 10:33:25;;;;;;;2.70;0.88;;;9.30;99.90;;;;;;5040220;28;20432;-73
2022/02/16 10:36:00;;;;;;;2.47;1.08;;;9.40;99.90;;;;;;5040450;28;20492;-74
2022/02/16 10:38:26;;;;;;;5.82;1.05;;;9.40;99.90;;;;;;5041420;28;20033;-74
2022/02/16 10:41:05;;;;;;;;;;;9.40;99.90;;;;;;5040036;28;20397;-75
2022/02/16 10:43:38;;;;;;;3.03;0.65;;;9.50;99.90;;;;;;5040222;28;20011;-75
2022/02/16 10:46:30;;;;;;;4.63;0.60;;;9.50;99.90;;;;;;5040097;28;20057;-75
2022/02/16 10:49:16;;;;;;;1.13;0.43;;;9.60;99.90;;;;;;5035672;28;20033;-74
2022/02/16 10:51:43;;;;;;;2.90;0.40;;;9.60;99.90;;;;;;5041710;28;20470;-74
2022/02/16 10:54:15;;;;;;;1.77;0.40;;;9.60;99.90;;;;;;5040845;28;20082;-75
2022/02/16 10:56:45;;;;;;;0.90;0.50;;;9.60;99.90;;;;;;5040616;28;20105;-74
2022/02/16 10:59:11;;;;;;;2.95;0.40;;;9.70;99.90;;;;;;5039481;28;20032;-75
2022/02/16 11:01:38;;;;;;;;;;;9.60;99.90;;;;;;5040045;28;20029;-80
2022/02/16 11:04:05;;;;;;;2.83;0.77;;;9.70;99.90;;;;;;5040620;28;19909;-75
2022/02/16 11:06:34;;;;;;;2.72;0.60;;;9.70;99.90;;;;;;5037115;28;20033;-74
2022/02/16 11:09:00;;;;;;;0.38;0.20;;;9.70;99.90;;;;;;5039838;28;20098;-73
2022/02/16 11:11:29;;;;;;;1.52;0.68;;;9.70;99.90;;;;;;5038515;28;20036;-75
2022/02/16 11:13:59;;;;;;;2.05;0.40;;;9.80;99.90;;;;;;5041055;28;20026;-78
2022/02/16 11:16:26;;;;;;;2.70;0.52;;;9.80;99.90;;;;;;5040422;28;20494;-74
2022/02/16 11:18:59;;;;;;;0.47;0.40;;;9.80;99.90;;;;;;5041300;28;20033;-72
2022/02/16 11:21:26;;;;;;;0.90;0.50;;;9.90;99.90;;;;;;5040802;28;20522;-72
2022/02/16 11:23:54;;;;;;;0.60;0.60;;;9.90;99.90;;;;;;5039863;28;20034;-73
2022/02/16 11:26:32;;;;;;;2.15;0.50;;;10.00;99.90;;;;;;5041143;28;20108;-73
2022/02/16 11:28:58;;;;;;;1.42;0.60;;;10.00;99.90;;;;;;5040701;28;20030;-74
2022/02/16 11:31:37;;;;;;;0.30;0.30;;;10.10;99.90;;;;;;5040390;28;20120;-75
2022/02/16 11:34:11;;;;;;;0.60;0.30;;;10.20;99.90;;;;;;5040354;28;20349;-76
2022/02/16 11:36:57;;;;;;;2.38;0.30;;;10.20;99.90;;;;;;5040150;28;20024;-77
2022/02/16 11:39:57;;;;;;;3.53;0.50;;;10.20;99.90;;;;;;5041054;28;20393;-77
2022/02/16 11:42:48;;;;;;;0.57;0.30;;;10.30;99.90;;;;;;5038105;28;20040;-76
2022/02/16 11:45:15;;;;;;;0.57;0.20;;;10.40;99.90;;;;;;5039656;28;20781;-75
2022/02/16 11:47:40;;;;;;;1.80;0.20;;;10.40;99.90;;;;;;5039628;28;20073;-76
2022/02/16 11:50:09;;;;;;;;;;;10.40;99.90;;;;;;5041032;28;20056;-76
2022/02/16 11:52:38;;;;;;;0.52;0.20;;;10.40;99.90;;;;;;5040531;28;20296;-75
2022/02/16 11:55:06;;;;;;;2.83;0.28;;;10.40;99.90;;;;;;5037456;28;20021;-76
2022/02/16 11:57:43;;;;;;;0.35;0.20;;;10.40;99.90;;;;;;5038740;28;20029;-75
2022/02/16 12:00:15;;;;;;;;;;;10.40;99.90;;;;;;5038247;28;20086;-76
2022/02/16 12:02:55;;;;;;;0.65;0.22;;;10.40;99.90;;;;;;5037732;28;19909;-76
2022/02/16 12:05:53;;;;;;;0.63;0.30;;;10.50;99.90;;;;;;5040190;28;20021;-76
2022/02/16 12:08:27;;;;;;;2.05;0.30;;;10.50;99.90;;;;;;5040427;28;20037;-76
2022/02/16 12:11:02;;;;;;;0.40;0.15;;;10.50;99.90;;;;;;5037300;28;20033;-74
2022/02/16 12:13:54;;;;;;;1.60;0.10;;;10.50;99.90;;;;;;5039541;28;20542;-74
2022/02/16 12:16:33;;;;;;;2.38;0.22;;;10.60;99.90;;;;;;4992917;28;20128;-76
2022/02/16 12:19:02;;;;;;;0.20;0.10;;;10.60;99.90;;;;;;5040250;28;20044;-77
2022/02/16 12:21:32;;;;;;;0.50;0.28;;;10.70;99.90;;;;;;5036823;28;20061;-78
2022/02/16 12:24:03;;;;;;;0.22;0.22;;;10.60;99.90;;;;;;5039978;28;20110;-76
2022/02/16 12:26:34;;;;;;;0.15;0.10;;;10.70;99.90;;;;;;5036756;28;20051;-77
2022/02/16 12:29:03;;;;;;;1.08;0.30;;;10.70;99.90;;;;;;5037950;28;20481;-77
2022/02/16 12:31:32;;;;;;;0.60;0.20;;;10.80;99.90;;;;;;5037479;28;20021;-71
2022/02/16 12:34:01;;;;;;;0.13;0.10;;;10.70;99.90;;;;;;5038378;28;20027;-75
2022/02/16 12:36:28;;;;;;;0.60;0.45;;;10.80;99.90;;;;;;5037106;28;20469;-73
2022/02/16 12:38:56;;;;;;;0.22;0.10;;;10.80;99.90;;;;;;5036506;28;20030;-74
2022/02/16 12:41:23;;;;;;;0.65;0.20;;;10.80;99.90;;;;;;5038470;28;20030;-74
2022/02/16 12:44:01;;;;;;;0.28;0.10;;;10.80;99.90;;;;;;5037950;28;20098;-73
2022/02/16 12:46:30;;;;;;;2.15;1.20;;;10.80;99.90;;;;;;5038793;28;20030;-73
2022/02/16 12:48:56;;;;;;;0.88;0.40;;;10.90;99.90;;;;;;5038634;28;20032;-73
2022/02/16 12:51:21;;;;;;;;;;;10.90;99.90;;;;;;5036549;28;20513;-73
2022/02/16 12:53:49;;;;;;;2.05;0.22;;;10.90;99.90;;;;;;5038238;28;19912;-72
2022/02/16 12:56:14;;;;;;;1.55;0.40;;;10.90;99.90;;;;;;5037797;28;20397;-73
2022/02/16 12:58:41;;;;;;;;;;;10.90;99.90;;;;;;5038805;28;20025;-73
2022/02/16 13:01:06;;;;;;;3.00;0.30;;;11.00;99.90;;;;;;5035227;28;19908;-73
2022/02/16 13:03:33;;;;;;;;;;;11.00;99.90;;;;;;5039835;28;20481;-72
2022/02/16 13:05:59;;;;;;;1.20;0.82;;;11.00;99.90;;;;;;5038730;28;19909;-73
2022/02/16 13:08:27;;;;;;;1.17;0.63;;;11.00;99.90;;;;;;5039198;28;20523;-73
2022/02/16 13:10:55;;;;;;;2.60;1.00;;;11.00;99.90;;;;;;5036812;28;20595;-73